sensor_id;sensor_type;location;lat;lon;timestamp;P1;durP1;ratioP1;P2;durP2;ratioP2
36009;SDS011;22076;52.182;5.404;2023-01-08T00:00:43;7.38;;;2.75;;
36009;SDS011;22076;52.182;5.404;2023-01-08T00:03:12;9.50;;;2.10;;
36009;SDS011;22076;52.182;5.404;2023-01-08T00:05:39;8.93;;;2.05;;
36009;SDS011;22076;52.182;5.404;2023-01-08T00:08:05;5.95;;;2.38;;
36009;SDS011;22076;52.182;5.404;2023-01-08T00:10:33;3.25;;;1.90;;
36009;SDS011;22076;52.182;5.404;2023-01-08T00:13:00;7.55;;;1.90;;
36009;SDS011;22076;52.182;5.404;2023-01-08T00:15:27;5.72;;;1.83;;
36009;SDS011;22076;52.182;5.404;2023-01-08T00:17:55;7.63;;;2.40;;
36009;SDS011;22076;52.182;5.404;2023-01-08T00:20:21;10.48;;;1.95;;
36009;SDS011;22076;52.182;5.404;2023-01-08T00:22:48;6.47;;;1.92;;
36009;SDS011;22076;52.182;5.404;2023-01-08T00:25:14;10.88;;;2.10;;
36009;SDS011;22076;52.182;5.404;2023-01-08T00:27:41;6.90;;;1.95;;
36009;SDS011;22076;52.182;5.404;2023-01-08T00:30:08;10.15;;;1.67;;
36009;SDS011;22076;52.182;5.404;2023-01-08T00:32:36;7.38;;;1.90;;
36009;SDS011;22076;52.182;5.404;2023-01-08T00:35:03;6.25;;;1.58;;
36009;SDS011;22076;52.182;5.404;2023-01-08T00:37:31;5.47;;;1.80;;
36009;SDS011;22076;52.182;5.404;2023-01-08T00:39:57;9.73;;;2.17;;
36009;SDS011;22076;52.182;5.404;2023-01-08T00:42:24;5.88;;;1.58;;
36009;SDS011;22076;52.182;5.404;2023-01-08T00:44:50;7.35;;;1.75;;
36009;SDS011;22076;52.182;5.404;2023-01-08T00:47:17;6.63;;;1.67;;
36009;SDS011;22076;52.182;5.404;2023-01-08T00:49:45;9.30;;;1.92;;
36009;SDS011;22076;52.182;5.404;2023-01-08T00:52:11;5.82;;;2.00;;
36009;SDS011;22076;52.182;5.404;2023-01-08T00:54:38;7.03;;;2.00;;
36009;SDS011;22076;52.182;5.404;2023-01-08T00:57:05;7.47;;;1.88;;
36009;SDS011;22076;52.182;5.404;2023-01-08T00:59:31;7.03;;;2.10;;
36009;SDS011;22076;52.182;5.404;2023-01-08T01:01:58;6.97;;;2.25;;
36009;SDS011;22076;52.182;5.404;2023-01-08T01:04:24;10.35;;;2.90;;
36009;SDS011;22076;52.182;5.404;2023-01-08T01:06:52;6.07;;;2.22;;
36009;SDS011;22076;52.182;5.404;2023-01-08T01:09:19;10.27;;;2.30;;
36009;SDS011;22076;52.182;5.404;2023-01-08T01:11:46;12.20;;;2.90;;
36009;SDS011;22076;52.182;5.404;2023-01-08T01:14:12;6.60;;;3.22;;
36009;SDS011;22076;52.182;5.404;2023-01-08T01:16:39;9.40;;;2.35;;
36009;SDS011;22076;52.182;5.404;2023-01-08T01:19:06;8.23;;;3.40;;
36009;SDS011;22076;52.182;5.404;2023-01-08T01:21:33;7.10;;;3.20;;
36009;SDS011;22076;52.182;5.404;2023-01-08T01:24:02;5.90;;;3.70;;
36009;SDS011;22076;52.182;5.404;2023-01-08T01:26:30;10.50;;;4.40;;
36009;SDS011;22076;52.182;5.404;2023-01-08T01:28:57;12.05;;;3.55;;
36009;SDS011;22076;52.182;5.404;2023-01-08T01:31:24;12.25;;;3.22;;
36009;SDS011;22076;52.182;5.404;2023-01-08T01:33:52;6.40;;;3.50;;
36009;SDS011;22076;52.182;5.404;2023-01-08T01:36:19;12.52;;;4.60;;
36009;SDS011;22076;52.182;5.404;2023-01-08T01:38:48;8.98;;;3.58;;
36009;SDS011;22076;52.182;5.404;2023-01-08T01:41:20;13.90;;;3.63;;
36009;SDS011;22076;52.182;5.404;2023-01-08T01:43:49;7.75;;;3.53;;
36009;SDS011;22076;52.182;5.404;2023-01-08T01:46:18;11.55;;;3.90;;
36009;SDS011;22076;52.182;5.404;2023-01-08T01:48:48;5.05;;;2.28;;
36009;SDS011;22076;52.182;5.404;2023-01-08T01:51:17;12.10;;;2.97;;
36009;SDS011;22076;52.182;5.404;2023-01-08T01:53:44;8.43;;;3.10;;
36009;SDS011;22076;52.182;5.404;2023-01-08T01:56:10;5.68;;;2.95;;
36009;SDS011;22076;52.182;5.404;2023-01-08T01:58:38;7.50;;;2.35;;
36009;SDS011;22076;52.182;5.404;2023-01-08T02:01:05;5.88;;;2.25;;
36009;SDS011;22076;52.182;5.404;2023-01-08T02:03:36;7.35;;;2.40;;
36009;SDS011;22076;52.182;5.404;2023-01-08T02:06:06;5.10;;;1.75;;
36009;SDS011;22076;52.182;5.404;2023-01-08T02:08:39;6.40;;;2.60;;
36009;SDS011;22076;52.182;5.404;2023-01-08T02:11:08;8.55;;;2.33;;
36009;SDS011;22076;52.182;5.404;2023-01-08T02:13:37;9.35;;;2.30;;
36009;SDS011;22076;52.182;5.404;2023-01-08T02:16:07;5.10;;;2.60;;
36009;SDS011;22076;52.182;5.404;2023-01-08T02:18:37;4.90;;;2.47;;
36009;SDS011;22076;52.182;5.404;2023-01-08T02:21:07;6.93;;;2.58;;
36009;SDS011;22076;52.182;5.404;2023-01-08T02:23:36;5.30;;;2.42;;
36009;SDS011;22076;52.182;5.404;2023-01-08T02:26:13;6.10;;;2.25;;
36009;SDS011;22076;52.182;5.404;2023-01-08T02:28:44;4.03;;;1.85;;
36009;SDS011;22076;52.182;5.404;2023-01-08T02:31:13;3.58;;;1.80;;
36009;SDS011;22076;52.182;5.404;2023-01-08T02:33:40;6.07;;;1.88;;
36009;SDS011;22076;52.182;5.404;2023-01-08T02:36:13;2.83;;;1.80;;
36009;SDS011;22076;52.182;5.404;2023-01-08T02:39:03;2.97;;;1.73;;
36009;SDS011;22076;52.182;5.404;2023-01-08T02:41:38;5.03;;;1.77;;
36009;SDS011;22076;52.182;5.404;2023-01-08T02:44:16;4.22;;;2.08;;
36009;SDS011;22076;52.182;5.404;2023-01-08T02:46:45;5.43;;;1.67;;
36009;SDS011;22076;52.182;5.404;2023-01-08T02:49:15;2.85;;;2.00;;
36009;SDS011;22076;52.182;5.404;2023-01-08T02:51:43;7.80;;;2.20;;
36009;SDS011;22076;52.182;5.404;2023-01-08T02:54:13;7.55;;;2.28;;
36009;SDS011;22076;52.182;5.404;2023-01-08T02:56:45;4.05;;;1.83;;
36009;SDS011;22076;52.182;5.404;2023-01-08T02:59:15;5.05;;;1.83;;
36009;SDS011;22076;52.182;5.404;2023-01-08T03:01:42;9.98;;;2.35;;
36009;SDS011;22076;52.182;5.404;2023-01-08T03:04:13;2.20;;;1.48;;
36009;SDS011;22076;52.182;5.404;2023-01-08T03:06:41;4.78;;;1.95;;
36009;SDS011;22076;52.182;5.404;2023-01-08T03:09:08;6.53;;;1.92;;
36009;SDS011;22076;52.182;5.404;2023-01-08T03:11:36;5.80;;;2.00;;
36009;SDS011;22076;52.182;5.404;2023-01-08T03:14:08;6.30;;;2.28;;
36009;SDS011;22076;52.182;5.404;2023-01-08T03:16:37;8.18;;;2.08;;
36009;SDS011;22076;52.182;5.404;2023-01-08T03:19:06;4.78;;;1.73;;
36009;SDS011;22076;52.182;5.404;2023-01-08T03:21:35;8.43;;;2.42;;
36009;SDS011;22076;52.182;5.404;2023-01-08T03:24:02;5.40;;;2.25;;
36009;SDS011;22076;52.182;5.404;2023-01-08T03:26:30;4.13;;;2.20;;
36009;SDS011;22076;52.182;5.404;2023-01-08T03:28:58;8.85;;;2.65;;
36009;SDS011;22076;52.182;5.404;2023-01-08T03:31:26;4.10;;;2.40;;
36009;SDS011;22076;52.182;5.404;2023-01-08T03:33:54;4.40;;;2.25;;
36009;SDS011;22076;52.182;5.404;2023-01-08T03:36:23;9.77;;;2.72;;
36009;SDS011;22076;52.182;5.404;2023-01-08T03:38:51;4.68;;;2.22;;
36009;SDS011;22076;52.182;5.404;2023-01-08T03:41:21;10.10;;;3.83;;
36009;SDS011;22076;52.182;5.404;2023-01-08T03:43:49;7.57;;;2.83;;
36009;SDS011;22076;52.182;5.404;2023-01-08T03:46:18;7.22;;;3.20;;
36009;SDS011;22076;52.182;5.404;2023-01-08T03:48:49;12.73;;;3.45;;
36009;SDS011;22076;52.182;5.404;2023-01-08T03:51:16;5.65;;;3.10;;
36009;SDS011;22076;52.182;5.404;2023-01-08T03:53:43;5.68;;;3.05;;
36009;SDS011;22076;52.182;5.404;2023-01-08T03:56:11;6.55;;;3.30;;
36009;SDS011;22076;52.182;5.404;2023-01-08T03:58:38;7.38;;;4.03;;
36009;SDS011;22076;52.182;5.404;2023-01-08T04:01:04;9.95;;;3.65;;
36009;SDS011;22076;52.182;5.404;2023-01-08T04:03:31;10.60;;;4.63;;
36009;SDS011;22076;52.182;5.404;2023-01-08T04:05:59;13.93;;;4.57;;
36009;SDS011;22076;52.182;5.404;2023-01-08T04:08:26;10.43;;;5.05;;
36009;SDS011;22076;52.182;5.404;2023-01-08T04:10:52;9.75;;;3.95;;
36009;SDS011;22076;52.182;5.404;2023-01-08T04:13:19;8.40;;;4.35;;
36009;SDS011;22076;52.182;5.404;2023-01-08T04:15:46;7.57;;;3.92;;
36009;SDS011;22076;52.182;5.404;2023-01-08T04:18:13;8.95;;;4.40;;
36009;SDS011;22076;52.182;5.404;2023-01-08T04:20:39;11.68;;;4.32;;
36009;SDS011;22076;52.182;5.404;2023-01-08T04:23:11;9.65;;;4.50;;
36009;SDS011;22076;52.182;5.404;2023-01-08T04:25:38;6.72;;;4.40;;
36009;SDS011;22076;52.182;5.404;2023-01-08T04:28:04;12.88;;;4.70;;
36009;SDS011;22076;52.182;5.404;2023-01-08T04:30:31;8.15;;;3.60;;
36009;SDS011;22076;52.182;5.404;2023-01-08T04:32:57;8.68;;;4.40;;
36009;SDS011;22076;52.182;5.404;2023-01-08T04:35:24;13.77;;;4.25;;
36009;SDS011;22076;52.182;5.404;2023-01-08T04:37:50;9.88;;;3.90;;
36009;SDS011;22076;52.182;5.404;2023-01-08T04:40:18;8.90;;;4.28;;
36009;SDS011;22076;52.182;5.404;2023-01-08T04:42:45;12.30;;;4.47;;
36009;SDS011;22076;52.182;5.404;2023-01-08T04:45:11;9.60;;;4.63;;
36009;SDS011;22076;52.182;5.404;2023-01-08T04:47:38;9.02;;;3.80;;
36009;SDS011;22076;52.182;5.404;2023-01-08T04:50:05;10.30;;;3.75;;
36009;SDS011;22076;52.182;5.404;2023-01-08T04:52:32;6.00;;;2.72;;
36009;SDS011;22076;52.182;5.404;2023-01-08T04:54:58;6.40;;;3.42;;
36009;SDS011;22076;52.182;5.404;2023-01-08T04:57:26;9.73;;;3.38;;
36009;SDS011;22076;52.182;5.404;2023-01-08T04:59:53;6.53;;;2.85;;
36009;SDS011;22076;52.182;5.404;2023-01-08T05:02:19;8.18;;;3.35;;
36009;SDS011;22076;52.182;5.404;2023-01-08T05:04:46;7.85;;;2.80;;
36009;SDS011;22076;52.182;5.404;2023-01-08T05:07:13;9.40;;;2.83;;
36009;SDS011;22076;52.182;5.404;2023-01-08T05:09:40;6.13;;;2.08;;
36009;SDS011;22076;52.182;5.404;2023-01-08T05:12:06;11.40;;;2.72;;
36009;SDS011;22076;52.182;5.404;2023-01-08T05:14:34;5.32;;;1.98;;
36009;SDS011;22076;52.182;5.404;2023-01-08T05:17:01;6.88;;;2.22;;
36009;SDS011;22076;52.182;5.404;2023-01-08T05:19:28;7.18;;;1.90;;
36009;SDS011;22076;52.182;5.404;2023-01-08T05:21:54;6.72;;;1.88;;
36009;SDS011;22076;52.182;5.404;2023-01-08T05:24:21;9.57;;;1.83;;
36009;SDS011;22076;52.182;5.404;2023-01-08T05:26:48;6.70;;;1.98;;
36009;SDS011;22076;52.182;5.404;2023-01-08T05:29:14;9.82;;;2.20;;
36009;SDS011;22076;52.182;5.404;2023-01-08T05:31:43;3.83;;;1.98;;
36009;SDS011;22076;52.182;5.404;2023-01-08T05:34:10;5.50;;;1.95;;
36009;SDS011;22076;52.182;5.404;2023-01-08T05:36:37;5.93;;;1.98;;
36009;SDS011;22076;52.182;5.404;2023-01-08T05:39:03;9.30;;;2.35;;
36009;SDS011;22076;52.182;5.404;2023-01-08T05:41:32;3.28;;;1.63;;
36009;SDS011;22076;52.182;5.404;2023-01-08T05:43:59;7.88;;;1.92;;
36009;SDS011;22076;52.182;5.404;2023-01-08T05:46:25;4.35;;;1.70;;
36009;SDS011;22076;52.182;5.404;2023-01-08T05:48:53;5.95;;;2.13;;
36009;SDS011;22076;52.182;5.404;2023-01-08T05:51:20;7.05;;;1.90;;
36009;SDS011;22076;52.182;5.404;2023-01-08T05:53:46;17.17;;;2.35;;
36009;SDS011;22076;52.182;5.404;2023-01-08T05:56:13;2.80;;;1.55;;
36009;SDS011;22076;52.182;5.404;2023-01-08T05:58:39;3.67;;;1.92;;
36009;SDS011;22076;52.182;5.404;2023-01-08T06:01:07;7.68;;;2.22;;
36009;SDS011;22076;52.182;5.404;2023-01-08T06:03:35;3.22;;;1.60;;
36009;SDS011;22076;52.182;5.404;2023-01-08T06:06:05;9.50;;;2.00;;
36009;SDS011;22076;52.182;5.404;2023-01-08T06:08:32;7.18;;;1.95;;
36009;SDS011;22076;52.182;5.404;2023-01-08T06:10:58;9.18;;;1.88;;
36009;SDS011;22076;52.182;5.404;2023-01-08T06:13:25;6.45;;;2.10;;
36009;SDS011;22076;52.182;5.404;2023-01-08T06:15:52;5.43;;;2.58;;
36009;SDS011;22076;52.182;5.404;2023-01-08T06:18:19;10.07;;;2.47;;
36009;SDS011;22076;52.182;5.404;2023-01-08T06:20:45;4.88;;;2.00;;
36009;SDS011;22076;52.182;5.404;2023-01-08T06:23:13;6.95;;;2.40;;
36009;SDS011;22076;52.182;5.404;2023-01-08T06:25:40;7.70;;;2.13;;
36009;SDS011;22076;52.182;5.404;2023-01-08T06:28:06;11.02;;;2.55;;
36009;SDS011;22076;52.182;5.404;2023-01-08T06:30:33;6.65;;;2.50;;
36009;SDS011;22076;52.182;5.404;2023-01-08T06:33:01;6.82;;;2.50;;
36009;SDS011;22076;52.182;5.404;2023-01-08T06:35:27;6.47;;;2.40;;
36009;SDS011;22076;52.182;5.404;2023-01-08T06:37:54;8.88;;;3.03;;
36009;SDS011;22076;52.182;5.404;2023-01-08T06:40:22;8.45;;;2.58;;
36009;SDS011;22076;52.182;5.404;2023-01-08T06:42:49;11.88;;;2.55;;
36009;SDS011;22076;52.182;5.404;2023-01-08T06:45:15;8.40;;;2.67;;
36009;SDS011;22076;52.182;5.404;2023-01-08T06:47:42;9.10;;;2.67;;
36009;SDS011;22076;52.182;5.404;2023-01-08T06:50:09;4.85;;;2.38;;
36009;SDS011;22076;52.182;5.404;2023-01-08T06:52:36;8.70;;;2.67;;
36009;SDS011;22076;52.182;5.404;2023-01-08T06:55:03;7.97;;;2.42;;
36009;SDS011;22076;52.182;5.404;2023-01-08T06:57:31;8.25;;;2.42;;
36009;SDS011;22076;52.182;5.404;2023-01-08T06:59:58;8.50;;;1.85;;
36009;SDS011;22076;52.182;5.404;2023-01-08T07:02:25;7.22;;;2.47;;
36009;SDS011;22076;52.182;5.404;2023-01-08T07:04:51;7.85;;;2.83;;
36009;SDS011;22076;52.182;5.404;2023-01-08T07:07:18;5.70;;;2.17;;
36009;SDS011;22076;52.182;5.404;2023-01-08T07:09:45;7.75;;;2.35;;
36009;SDS011;22076;52.182;5.404;2023-01-08T07:12:12;9.02;;;2.67;;
36009;SDS011;22076;52.182;5.404;2023-01-08T07:14:40;6.00;;;2.47;;
36009;SDS011;22076;52.182;5.404;2023-01-08T07:17:07;5.57;;;2.03;;
36009;SDS011;22076;52.182;5.404;2023-01-08T07:19:34;7.20;;;1.83;;
36009;SDS011;22076;52.182;5.404;2023-01-08T07:22:00;6.07;;;2.10;;
36009;SDS011;22076;52.182;5.404;2023-01-08T07:24:27;6.55;;;2.38;;
36009;SDS011;22076;52.182;5.404;2023-01-08T07:26:54;6.88;;;2.05;;
36009;SDS011;22076;52.182;5.404;2023-01-08T07:29:20;7.18;;;2.22;;
36009;SDS011;22076;52.182;5.404;2023-01-08T07:31:48;7.50;;;2.15;;
36009;SDS011;22076;52.182;5.404;2023-01-08T07:34:15;10.90;;;2.22;;
36009;SDS011;22076;52.182;5.404;2023-01-08T07:36:41;5.95;;;2.30;;
36009;SDS011;22076;52.182;5.404;2023-01-08T07:39:08;5.60;;;2.20;;
36009;SDS011;22076;52.182;5.404;2023-01-08T07:41:34;6.65;;;2.00;;
36009;SDS011;22076;52.182;5.404;2023-01-08T07:44:01;9.68;;;2.40;;
36009;SDS011;22076;52.182;5.404;2023-01-08T07:46:27;10.30;;;2.13;;
36009;SDS011;22076;52.182;5.404;2023-01-08T07:48:55;8.30;;;2.00;;
36009;SDS011;22076;52.182;5.404;2023-01-08T07:51:23;5.25;;;1.75;;
36009;SDS011;22076;52.182;5.404;2023-01-08T07:53:49;6.43;;;1.83;;
36009;SDS011;22076;52.182;5.404;2023-01-08T07:56:16;6.57;;;2.70;;
36009;SDS011;22076;52.182;5.404;2023-01-08T07:58:42;5.45;;;2.00;;
36009;SDS011;22076;52.182;5.404;2023-01-08T08:01:09;9.32;;;1.98;;
36009;SDS011;22076;52.182;5.404;2023-01-08T08:03:36;8.93;;;1.88;;
36009;SDS011;22076;52.182;5.404;2023-01-08T08:06:04;6.57;;;1.75;;
36009;SDS011;22076;52.182;5.404;2023-01-08T08:08:31;8.85;;;2.17;;
36009;SDS011;22076;52.182;5.404;2023-01-08T08:10:58;10.65;;;2.38;;
36009;SDS011;22076;52.182;5.404;2023-01-08T08:13:24;8.98;;;2.25;;
36009;SDS011;22076;52.182;5.404;2023-01-08T08:15:51;7.13;;;1.95;;
36009;SDS011;22076;52.182;5.404;2023-01-08T08:18:18;14.52;;;2.38;;
36009;SDS011;22076;52.182;5.404;2023-01-08T08:20:44;8.30;;;1.65;;
36009;SDS011;22076;52.182;5.404;2023-01-08T08:23:13;7.13;;;2.10;;
36009;SDS011;22076;52.182;5.404;2023-01-08T08:25:39;11.23;;;1.88;;
36009;SDS011;22076;52.182;5.404;2023-01-08T08:28:08;3.85;;;1.98;;
36009;SDS011;22076;52.182;5.404;2023-01-08T08:30:36;12.48;;;3.00;;
36009;SDS011;22076;52.182;5.404;2023-01-08T08:33:04;11.88;;;1.73;;
36009;SDS011;22076;52.182;5.404;2023-01-08T08:35:32;7.78;;;2.22;;
36009;SDS011;22076;52.182;5.404;2023-01-08T08:37:59;10.73;;;2.20;;
36009;SDS011;22076;52.182;5.404;2023-01-08T08:40:27;8.68;;;1.75;;
36009;SDS011;22076;52.182;5.404;2023-01-08T08:42:54;12.30;;;2.88;;
36009;SDS011;22076;52.182;5.404;2023-01-08T08:45:21;9.35;;;1.95;;
36009;SDS011;22076;52.182;5.404;2023-01-08T08:47:48;6.47;;;2.00;;
36009;SDS011;22076;52.182;5.404;2023-01-08T08:50:14;7.65;;;1.75;;
36009;SDS011;22076;52.182;5.404;2023-01-08T08:52:41;12.57;;;1.90;;
36009;SDS011;22076;52.182;5.404;2023-01-08T08:55:09;11.00;;;2.00;;
36009;SDS011;22076;52.182;5.404;2023-01-08T08:57:38;13.63;;;2.35;;
36009;SDS011;22076;52.182;5.404;2023-01-08T09:00:05;9.20;;;2.00;;
36009;SDS011;22076;52.182;5.404;2023-01-08T09:02:32;17.60;;;2.78;;
36009;SDS011;22076;52.182;5.404;2023-01-08T09:04:59;15.45;;;2.70;;
36009;SDS011;22076;52.182;5.404;2023-01-08T09:07:26;10.30;;;1.52;;
36009;SDS011;22076;52.182;5.404;2023-01-08T09:09:52;7.78;;;2.15;;
36009;SDS011;22076;52.182;5.404;2023-01-08T09:12:19;9.43;;;2.30;;
36009;SDS011;22076;52.182;5.404;2023-01-08T09:14:47;9.15;;;1.77;;
36009;SDS011;22076;52.182;5.404;2023-01-08T09:17:14;20.33;;;2.10;;
36009;SDS011;22076;52.182;5.404;2023-01-08T09:19:40;6.75;;;2.40;;
36009;SDS011;22076;52.182;5.404;2023-01-08T09:22:07;11.40;;;2.25;;
36009;SDS011;22076;52.182;5.404;2023-01-08T09:24:33;19.25;;;2.85;;
36009;SDS011;22076;52.182;5.404;2023-01-08T09:27:00;13.10;;;2.25;;
36009;SDS011;22076;52.182;5.404;2023-01-08T09:29:26;11.82;;;2.35;;
36009;SDS011;22076;52.182;5.404;2023-01-08T09:31:54;11.45;;;2.35;;
36009;SDS011;22076;52.182;5.404;2023-01-08T09:34:24;12.82;;;2.22;;
36009;SDS011;22076;52.182;5.404;2023-01-08T09:36:50;9.35;;;2.35;;
36009;SDS011;22076;52.182;5.404;2023-01-08T09:39:18;17.65;;;3.20;;
36009;SDS011;22076;52.182;5.404;2023-01-08T09:41:45;11.73;;;2.30;;
36009;SDS011;22076;52.182;5.404;2023-01-08T09:44:13;19.02;;;2.53;;
36009;SDS011;22076;52.182;5.404;2023-01-08T09:46:41;17.00;;;2.90;;
36009;SDS011;22076;52.182;5.404;2023-01-08T09:49:11;13.85;;;3.22;;
36009;SDS011;22076;52.182;5.404;2023-01-08T09:51:39;10.23;;;2.03;;
36009;SDS011;22076;52.182;5.404;2023-01-08T09:54:09;11.38;;;2.55;;
36009;SDS011;22076;52.182;5.404;2023-01-08T09:56:39;11.10;;;2.42;;
36009;SDS011;22076;52.182;5.404;2023-01-08T09:59:06;15.60;;;2.63;;
36009;SDS011;22076;52.182;5.404;2023-01-08T10:01:36;12.90;;;2.55;;
36009;SDS011;22076;52.182;5.404;2023-01-08T10:04:05;9.80;;;2.55;;
36009;SDS011;22076;52.182;5.404;2023-01-08T10:06:36;13.02;;;2.78;;
36009;SDS011;22076;52.182;5.404;2023-01-08T10:09:03;10.43;;;2.65;;
36009;SDS011;22076;52.182;5.404;2023-01-08T10:11:31;10.85;;;2.53;;
36009;SDS011;22076;52.182;5.404;2023-01-08T10:13:59;9.45;;;2.65;;
36009;SDS011;22076;52.182;5.404;2023-01-08T10:16:27;10.85;;;1.98;;
36009;SDS011;22076;52.182;5.404;2023-01-08T10:18:55;13.68;;;2.90;;
36009;SDS011;22076;52.182;5.404;2023-01-08T10:21:23;14.27;;;2.33;;
36009;SDS011;22076;52.182;5.404;2023-01-08T10:23:56;8.17;;;2.73;;
36009;SDS011;22076;52.182;5.404;2023-01-08T10:26:26;12.45;;;2.72;;
36009;SDS011;22076;52.182;5.404;2023-01-08T10:29:04;12.27;;;2.25;;
36009;SDS011;22076;52.182;5.404;2023-01-08T10:31:32;12.85;;;3.08;;
36009;SDS011;22076;52.182;5.404;2023-01-08T10:34:05;13.55;;;3.25;;
36009;SDS011;22076;52.182;5.404;2023-01-08T10:36:36;12.80;;;2.70;;
36009;SDS011;22076;52.182;5.404;2023-01-08T10:39:06;10.68;;;2.47;;
36009;SDS011;22076;52.182;5.404;2023-01-08T10:41:44;4.97;;;2.08;;
36009;SDS011;22076;52.182;5.404;2023-01-08T10:44:13;17.35;;;5.60;;
36009;SDS011;22076;52.182;5.404;2023-01-08T10:46:41;10.95;;;2.92;;
36009;SDS011;22076;52.182;5.404;2023-01-08T10:49:12;9.25;;;2.63;;
36009;SDS011;22076;52.182;5.404;2023-01-08T10:51:47;11.30;;;2.28;;
36009;SDS011;22076;52.182;5.404;2023-01-08T10:54:31;12.30;;;2.25;;
36009;SDS011;22076;52.182;5.404;2023-01-08T10:56:59;12.45;;;2.28;;
36009;SDS011;22076;52.182;5.404;2023-01-08T10:59:26;7.35;;;2.00;;
36009;SDS011;22076;52.182;5.404;2023-01-08T11:01:53;6.47;;;2.17;;
36009;SDS011;22076;52.182;5.404;2023-01-08T11:04:21;12.43;;;2.17;;
36009;SDS011;22076;52.182;5.404;2023-01-08T11:06:49;12.75;;;2.80;;
36009;SDS011;22076;52.182;5.404;2023-01-08T11:09:18;11.80;;;2.55;;
36009;SDS011;22076;52.182;5.404;2023-01-08T11:11:48;8.48;;;2.13;;
36009;SDS011;22076;52.182;5.404;2023-01-08T11:14:16;12.68;;;2.65;;
36009;SDS011;22076;52.182;5.404;2023-01-08T11:16:46;12.20;;;2.40;;
36009;SDS011;22076;52.182;5.404;2023-01-08T11:19:14;6.22;;;1.88;;
36009;SDS011;22076;52.182;5.404;2023-01-08T11:21:42;9.00;;;2.08;;
36009;SDS011;22076;52.182;5.404;2023-01-08T11:24:22;13.93;;;2.70;;
36009;SDS011;22076;52.182;5.404;2023-01-08T11:26:50;15.50;;;2.40;;
36009;SDS011;22076;52.182;5.404;2023-01-08T11:29:21;13.05;;;3.00;;
36009;SDS011;22076;52.182;5.404;2023-01-08T11:31:53;8.48;;;2.45;;
36009;SDS011;22076;52.182;5.404;2023-01-08T11:34:23;9.00;;;2.05;;
36009;SDS011;22076;52.182;5.404;2023-01-08T11:36:54;7.22;;;2.50;;
36009;SDS011;22076;52.182;5.404;2023-01-08T11:39:25;7.07;;;1.90;;
36009;SDS011;22076;52.182;5.404;2023-01-08T11:42:01;8.48;;;2.28;;
36009;SDS011;22076;52.182;5.404;2023-01-08T11:44:38;12.63;;;2.53;;
36009;SDS011;22076;52.182;5.404;2023-01-08T11:47:13;8.48;;;2.45;;
36009;SDS011;22076;52.182;5.404;2023-01-08T11:49:45;7.10;;;2.17;;
36009;SDS011;22076;52.182;5.404;2023-01-08T11:52:22;5.50;;;1.92;;
36009;SDS011;22076;52.182;5.404;2023-01-08T11:55:12;11.07;;;2.70;;
36009;SDS011;22076;52.182;5.404;2023-01-08T11:57:47;13.27;;;2.40;;
36009;SDS011;22076;52.182;5.404;2023-01-08T12:00:27;7.78;;;1.90;;
36009;SDS011;22076;52.182;5.404;2023-01-08T12:03:01;12.27;;;2.40;;
36009;SDS011;22076;52.182;5.404;2023-01-08T12:05:28;12.30;;;2.35;;
36009;SDS011;22076;52.182;5.404;2023-01-08T12:08:00;3.05;;;1.60;;
36009;SDS011;22076;52.182;5.404;2023-01-08T12:10:31;6.63;;;2.03;;
36009;SDS011;22076;52.182;5.404;2023-01-08T12:13:06;9.20;;;2.55;;
36009;SDS011;22076;52.182;5.404;2023-01-08T12:15:43;5.90;;;1.77;;
36009;SDS011;22076;52.182;5.404;2023-01-08T12:18:18;5.40;;;1.80;;
36009;SDS011;22076;52.182;5.404;2023-01-08T12:20:53;4.28;;;1.73;;
36009;SDS011;22076;52.182;5.404;2023-01-08T12:23:24;5.80;;;2.08;;
36009;SDS011;22076;52.182;5.404;2023-01-08T12:26:11;8.52;;;1.80;;
36009;SDS011;22076;52.182;5.404;2023-01-08T12:31:51;3.85;;;1.50;;
36009;SDS011;22076;52.182;5.404;2023-01-08T12:34:29;8.48;;;2.05;;
36009;SDS011;22076;52.182;5.404;2023-01-08T12:37:04;5.88;;;1.40;;
36009;SDS011;22076;52.182;5.404;2023-01-08T12:39:35;3.50;;;1.80;;
36009;SDS011;22076;52.182;5.404;2023-01-08T12:42:08;7.95;;;2.45;;
36009;SDS011;22076;52.182;5.404;2023-01-08T12:44:36;4.43;;;2.00;;
36009;SDS011;22076;52.182;5.404;2023-01-08T12:47:03;3.28;;;1.52;;
36009;SDS011;22076;52.182;5.404;2023-01-08T12:49:34;3.80;;;1.83;;
36009;SDS011;22076;52.182;5.404;2023-01-08T12:52:04;10.18;;;1.95;;
36009;SDS011;22076;52.182;5.404;2023-01-08T12:54:36;6.22;;;1.85;;
36009;SDS011;22076;52.182;5.404;2023-01-08T12:57:15;8.43;;;2.00;;
36009;SDS011;22076;52.182;5.404;2023-01-08T12:59:44;6.85;;;2.13;;
36009;SDS011;22076;52.182;5.404;2023-01-08T13:02:17;4.28;;;1.80;;
36009;SDS011;22076;52.182;5.404;2023-01-08T13:04:52;4.68;;;2.03;;
36009;SDS011;22076;52.182;5.404;2023-01-08T13:07:19;3.70;;;1.90;;
36009;SDS011;22076;52.182;5.404;2023-01-08T13:09:54;6.00;;;1.90;;
36009;SDS011;22076;52.182;5.404;2023-01-08T13:12:33;6.38;;;2.22;;
36009;SDS011;22076;52.182;5.404;2023-01-08T13:15:01;7.40;;;2.05;;
36009;SDS011;22076;52.182;5.404;2023-01-08T13:17:28;7.13;;;1.65;;
36009;SDS011;22076;52.182;5.404;2023-01-08T13:19:57;3.58;;;1.83;;
36009;SDS011;22076;52.182;5.404;2023-01-08T13:22:26;9.70;;;1.95;;
36009;SDS011;22076;52.182;5.404;2023-01-08T13:25:07;4.85;;;1.73;;
36009;SDS011;22076;52.182;5.404;2023-01-08T13:27:36;4.60;;;1.85;;
36009;SDS011;22076;52.182;5.404;2023-01-08T13:30:02;2.95;;;1.58;;
36009;SDS011;22076;52.182;5.404;2023-01-08T13:32:49;1.90;;;1.40;;
36009;SDS011;22076;52.182;5.404;2023-01-08T13:35:19;4.28;;;1.65;;
36009;SDS011;22076;52.182;5.404;2023-01-08T13:37:49;7.05;;;2.00;;
36009;SDS011;22076;52.182;5.404;2023-01-08T13:43:04;5.78;;;1.42;;
36009;SDS011;22076;52.182;5.404;2023-01-08T13:45:36;6.97;;;1.63;;
36009;SDS011;22076;52.182;5.404;2023-01-08T13:48:02;4.93;;;1.30;;
36009;SDS011;22076;52.182;5.404;2023-01-08T13:50:29;10.15;;;1.92;;
36009;SDS011;22076;52.182;5.404;2023-01-08T13:52:57;5.28;;;1.70;;
36009;SDS011;22076;52.182;5.404;2023-01-08T13:55:26;4.95;;;1.52;;
36009;SDS011;22076;52.182;5.404;2023-01-08T13:57:54;3.47;;;1.67;;
36009;SDS011;22076;52.182;5.404;2023-01-08T14:00:25;4.88;;;1.40;;
36009;SDS011;22076;52.182;5.404;2023-01-08T14:02:55;5.40;;;1.30;;
36009;SDS011;22076;52.182;5.404;2023-01-08T14:05:26;5.07;;;1.27;;
36009;SDS011;22076;52.182;5.404;2023-01-08T14:07:53;4.90;;;1.38;;
36009;SDS011;22076;52.182;5.404;2023-01-08T14:10:21;4.55;;;1.17;;
36009;SDS011;22076;52.182;5.404;2023-01-08T14:12:48;3.03;;;1.27;;
36009;SDS011;22076;52.182;5.404;2023-01-08T14:15:26;5.57;;;1.75;;
36009;SDS011;22076;52.182;5.404;2023-01-08T14:17:53;6.10;;;1.45;;
36009;SDS011;22076;52.182;5.404;2023-01-08T14:20:23;3.72;;;1.20;;
36009;SDS011;22076;52.182;5.404;2023-01-08T14:22:54;4.43;;;1.60;;
36009;SDS011;22076;52.182;5.404;2023-01-08T14:25:21;7.60;;;1.52;;
36009;SDS011;22076;52.182;5.404;2023-01-08T14:27:55;5.15;;;1.38;;
36009;SDS011;22076;52.182;5.404;2023-01-08T14:30:22;4.35;;;1.20;;
36009;SDS011;22076;52.182;5.404;2023-01-08T14:32:51;6.38;;;1.70;;
36009;SDS011;22076;52.182;5.404;2023-01-08T14:35:20;7.47;;;1.50;;
36009;SDS011;22076;52.182;5.404;2023-01-08T14:37:52;11.80;;;1.85;;
36009;SDS011;22076;52.182;5.404;2023-01-08T14:40:25;5.32;;;1.40;;
36009;SDS011;22076;52.182;5.404;2023-01-08T14:42:54;4.22;;;1.42;;
36009;SDS011;22076;52.182;5.404;2023-01-08T14:45:21;8.75;;;1.77;;
36009;SDS011;22076;52.182;5.404;2023-01-08T14:47:51;5.65;;;2.03;;
36009;SDS011;22076;52.182;5.404;2023-01-08T14:50:20;11.85;;;1.70;;
36009;SDS011;22076;52.182;5.404;2023-01-08T14:52:49;9.38;;;2.00;;
36009;SDS011;22076;52.182;5.404;2023-01-08T14:55:16;6.03;;;1.80;;
36009;SDS011;22076;52.182;5.404;2023-01-08T14:57:44;5.95;;;1.40;;